Time;durP1;ratioP1;P1;durP2;ratioP2;P2;SDS_P1;SDS_P2;PMS_P1;PMS_P2;Temp;Humidity;BMP_temperature;BMP_pressure;BME280_temperature;BME280_humidity;BME280_pressure;Samples;Min_cycle;Max_cycle;Signal;HPM_P1;HPM_P2
2022/05/09 00:00:36;;;;;;;13.80;8.20;;;;;;;17.73;56.58;101929.47;4963997;28;20053;-65
2022/05/09 00:03:18;;;;;;;12.43;7.82;;;;;;;17.85;55.43;101926.81;4982471;28;20046;-68
2022/05/09 00:05:48;;;;;;;12.85;7.93;;;;;;;17.10;56.43;101932.16;5015854;28;20046;-67
2022/05/09 00:08:29;;;;;;;14.23;7.80;;;;;;;16.75;57.90;101934.09;4982816;28;20062;-64
2022/05/09 00:14:22;;;;;;;13.30;7.28;;;;;;;17.36;56.55;101930.16;4954102;28;20051;-67
2022/05/09 00:17:07;;;;;;;12.48;7.85;;;;;;;16.92;57.14;101931.31;4938018;29;20059;-62
2022/05/09 00:20:00;;;;;;;15.88;8.43;;;;;;;16.40;58.75;101935.94;4941522;29;20104;-68
2022/05/09 00:23:20;;;;;;;13.48;7.97;;;;;;;16.72;58.18;101929.97;4944549;28;20200;-69
2022/05/09 00:26:49;;;;;;;14.10;7.30;;;;;;;17.35;58.62;101922.94;4874008;29;20052;-66
2022/05/09 00:33:45;;;;;;;12.02;7.60;;;;;;;16.60;58.25;101932.59;4921856;29;20055;-63
2022/05/09 00:36:37;;;;;;;18.00;8.00;;;;;;;16.15;59.61;101931.09;4954635;28;20043;-63
2022/05/09 00:39:30;;;;;;;14.25;7.78;;;;;;;16.51;58.77;101925.38;4927671;29;20059;-63
2022/05/09 00:42:09;;;;;;;16.80;8.40;;;;;;;16.44;60.67;101930.56;4937853;29;20051;-63
2022/05/09 00:44:36;;;;;;;12.55;7.75;;;;;;;16.49;59.44;101931.25;4966789;28;20062;-67
2022/05/09 00:47:04;;;;;;;13.07;8.40;;;;;;;16.00;59.79;101928.78;5018335;28;20054;-67
2022/05/09 00:50:00;;;;;;;14.98;8.10;;;;;;;16.14;59.97;101931.44;5013645;28;20062;-69
2022/05/09 00:53:28;;;;;;;21.60;8.85;;;;;;;16.05;59.42;101931.41;4974979;28;20042;-65
2022/05/09 00:56:56;;;;;;;14.02;8.10;;;;;;;16.30;60.12;101925.09;4967743;28;20039;-69
2022/05/09 00:59:51;;;;;;;12.80;8.50;;;;;;;16.22;59.98;101936.19;5006715;28;20053;-71
2022/05/09 01:02:28;;;;;;;15.70;8.73;;;;;;;16.08;60.63;101927.16;4973665;28;20060;-66
2022/05/09 01:05:22;;;;;;;17.27;9.13;;;;;;;16.25;61.06;101930.03;4982268;28;20524;-69
2022/05/09 01:07:50;;;;;;;17.17;8.05;;;;;;;15.70;59.78;101924.03;4981658;28;20056;-63
2022/05/09 01:10:50;;;;;;;14.93;8.07;;;;;;;15.76;60.77;101919.97;5000939;28;20050;-62
2022/05/09 01:13:25;;;;;;;14.35;8.00;;;;;;;15.67;60.29;101919.91;5015590;28;20054;-68
2022/05/09 01:16:17;;;;;;;12.93;7.55;;;;;;;15.95;59.93;101919.75;5002569;28;20057;-63
2022/05/09 01:19:01;;;;;;;13.45;7.10;;;;;;;16.31;59.31;101921.19;4967447;28;20537;-64
2022/05/09 01:21:57;;;;;;;18.17;8.10;;;;;;;16.32;59.82;101928.38;5000467;28;20052;-63
2022/05/09 01:24:43;;;;;;;12.77;6.15;;;;;;;15.99;58.77;101916.00;4964671;28;20053;-69
2022/05/09 01:27:31;;;;;;;11.93;6.40;;;;;;;15.48;59.49;101921.28;4985304;28;20504;-69
2022/05/09 01:30:47;;;;;;;14.10;6.32;;;;;;;16.02;59.98;101925.66;4915840;29;20052;-68
2022/05/09 01:33:33;;;;;;;13.50;6.15;;;;;;;15.81;58.66;101924.59;4934394;29;20108;-66
2022/05/09 01:36:14;;;;;;;12.60;6.28;;;;;;;15.52;59.21;101923.13;4918318;29;20055;-69
2022/05/09 01:38:52;;;;;;;11.15;5.35;;;;;;;15.92;59.93;101926.75;4906520;29;20071;-68
2022/05/09 01:41:39;;;;;;;10.55;5.15;;;;;;;16.31;57.80;101926.75;4914355;29;20060;-70
2022/05/09 01:44:32;;;;;;;13.05;5.18;;;;;;;16.62;58.16;101921.13;4922210;29;20091;-69
2022/05/09 01:50:45;;;;;;;;;;;;;;;;;;;;;
2022/05/09 01:53:36;;;;;;;13.80;5.50;;;;;;;15.19;59.50;101912.56;4912601;29;20066;-65
2022/05/09 01:56:36;;;;;;;14.88;5.45;;;;;;;15.08;59.47;101917.53;4910975;29;20063;-64
2022/05/09 01:59:37;;;;;;;12.88;5.00;;;;;;;15.48;59.21;101922.09;4908633;29;20063;-69
2022/05/09 02:02:13;;;;;;;;;;;;;;;15.37;59.82;101917.94;5005568;28;20061;-69
2022/05/09 02:05:07;;;;;;;12.38;4.60;;;;;;;15.63;58.37;101907.84;4996034;28;19921;-69
2022/05/09 02:11:27;;;;;;;17.90;4.60;;;;;;;15.69;58.48;101912.09;4976932;28;20061;-64
2022/05/09 02:17:59;;;;;;;13.25;4.10;;;;;;;15.46;57.26;101916.03;4992517;28;20058;-65
2022/05/09 02:20:39;;;;;;;11.73;4.78;;;;;;;15.49;57.43;101915.44;5010184;28;20053;-60
2022/05/09 02:23:13;;;;;;;11.65;4.40;;;;;;;15.36;59.17;101910.72;5012111;28;20052;-62
2022/05/09 02:25:42;;;;;;;12.32;4.63;;;;;;;15.38;58.03;101910.41;5008083;28;20042;-63
2022/05/09 02:28:09;;;;;;;11.13;4.20;;;;;;;15.68;58.55;101902.13;5017687;28;20050;-66
2022/05/09 02:30:38;;;;;;;12.95;4.30;;;;;;;15.48;57.04;101908.22;4983323;28;20060;-66
2022/05/09 02:33:06;;;;;;;14.25;4.60;;;;;;;15.48;56.93;101904.63;5004423;28;20058;-68
2022/05/09 02:35:35;;;;;;;14.68;4.32;;;;;;;15.46;57.78;101904.94;5016963;28;20061;-67
2022/05/09 02:38:03;;;;;;;9.98;4.07;;;;;;;15.79;58.15;101900.69;5004058;28;20432;-68
2022/05/09 02:40:33;;;;;;;12.80;4.20;;;;;;;16.35;57.19;101902.69;5022239;28;20050;-69
2022/05/09 02:43:31;;;;;;;11.07;4.23;;;;;;;16.67;56.13;101898.72;4999967;28;20401;-70
2022/05/09 02:46:12;;;;;;;12.13;4.75;;;;;;;16.22;56.27;101905.63;4990330;28;20042;-69
2022/05/09 02:48:40;;;;;;;17.55;5.72;;;;;;;15.54;59.10;101906.13;5015004;28;20053;-67
2022/05/09 02:51:09;;;;;;;12.82;5.93;;;;;;;16.40;57.29;101899.78;5010550;28;20065;-67
2022/05/09 02:53:36;;;;;;;14.98;6.13;;;;;;;16.13;55.38;101894.47;5013853;28;20425;-68
2022/05/09 02:56:05;;;;;;;10.20;5.13;;;;;;;15.11;58.16;101899.44;4987008;28;20050;-70
2022/05/09 02:58:33;;;;;;;14.40;5.50;;;;;;;15.50;58.24;101896.78;5011139;28;20057;-66
2022/05/09 03:01:21;;;;;;;14.27;5.30;;;;;;;15.76;58.92;101895.78;5007964;28;20046;-68
2022/05/09 03:06:43;;;;;;;10.20;4.82;;;;;;;16.02;56.42;101892.31;4995764;28;20054;-67
2022/05/09 03:09:11;;;;;;;18.60;6.03;;;;;;;15.59;57.77;101895.72;5007342;28;20045;-62
2022/05/09 03:11:39;;;;;;;13.18;5.10;;;;;;;15.02;59.39;101893.81;5013262;28;20042;-62
2022/05/09 03:14:07;;;;;;;12.73;5.00;;;;;;;15.64;59.34;101903.06;4990799;28;20050;-63
2022/05/09 03:16:35;;;;;;;13.55;5.30;;;;;;;14.38;60.78;101897.00;5002257;28;20427;-63
2022/05/09 03:19:02;;;;;;;14.40;5.15;;;;;;;14.49;60.33;101890.06;5003216;28;20061;-63
2022/05/09 03:21:32;;;;;;;14.80;5.50;;;;;;;14.55;59.87;101889.66;5007718;28;20057;-62
2022/05/09 03:23:59;;;;;;;18.02;5.80;;;;;;;14.61;60.36;101890.34;4971253;28;20756;-62
2022/05/09 03:26:26;;;;;;;12.00;5.53;;;;;;;15.08;59.39;101888.97;5014011;28;20489;-62
2022/05/09 03:28:54;;;;;;;17.45;5.93;;;;;;;14.75;61.54;101888.34;5016360;28;20053;-61
2022/05/09 03:31:21;;;;;;;15.50;5.60;;;;;;;14.73;59.96;101901.75;5003284;28;20493;-68
2022/05/09 03:33:50;;;;;;;18.13;6.05;;;;;;;14.56;61.36;101893.25;5015907;28;20053;-68
2022/05/09 03:36:17;;;;;;;18.33;5.80;;;;;;;14.63;61.32;101890.84;5016036;28;20064;-67
2022/05/09 03:38:45;;;;;;;11.98;5.40;;;;;;;15.12;60.55;101895.50;5024023;28;20049;-66
2022/05/09 03:41:12;;;;;;;13.52;6.00;;;;;;;14.79;59.73;101891.31;4999088;28;20049;-66
2022/05/09 03:43:39;;;;;;;15.68;5.25;;;;;;;14.93;60.50;101894.88;5015898;28;20054;-67
2022/05/09 03:46:07;;;;;;;21.10;6.40;;;;;;;14.50;60.85;101900.03;4991567;28;20046;-67
2022/05/09 03:48:34;;;;;;;16.30;6.60;;;;;;;14.04;61.84;101896.56;5010358;28;20054;-66
2022/05/09 03:51:02;;;;;;;17.13;6.32;;;;;;;14.18;61.57;101895.44;5001791;28;20417;-67
2022/05/09 03:53:30;;;;;;;16.58;6.07;;;;;;;14.28;62.91;101897.19;5013556;28;20520;-67
2022/05/09 03:55:57;;;;;;;16.13;6.53;;;;;;;13.97;62.61;101896.97;5002322;28;20061;-67
2022/05/09 03:58:25;;;;;;;13.23;5.90;;;;;;;14.60;62.08;101888.72;4998525;28;20480;-70
2022/05/09 04:01:13;;;;;;;19.95;6.60;;;;;;;14.42;61.56;101886.91;5002203;28;20428;-67
2022/05/09 04:03:40;;;;;;;15.57;6.20;;;;;;;14.59;61.84;101887.88;5018239;28;20061;-66
2022/05/09 04:06:08;;;;;;;18.15;6.90;;;;;;;14.94;60.76;101889.00;4991978;28;20057;-66
2022/05/09 04:08:37;;;;;;;17.17;6.13;;;;;;;14.29;62.61;101896.06;5009963;28;20077;-67
2022/05/09 04:11:04;;;;;;;18.42;6.32;;;;;;;14.46;61.45;101890.69;4996988;28;20058;-67
2022/05/09 04:13:31;;;;;;;17.45;6.28;;;;;;;14.48;61.61;101889.28;4997833;28;20045;-66
2022/05/09 04:19:24;;;;;;;16.48;6.13;;;;;;;14.45;61.45;101880.75;4999104;28;20046;-61
2022/05/09 04:21:51;;;;;;;17.13;6.47;;;;;;;14.78;62.37;101896.06;5022308;28;20061;-62
2022/05/09 04:24:18;;;;;;;21.08;7.00;;;;;;;14.38;62.92;101892.25;4973477;28;20517;-62
2022/05/09 04:26:46;;;;;;;14.68;5.90;;;;;;;15.27;62.25;101889.59;5015249;28;20065;-63
2022/05/09 04:29:13;;;;;;;15.38;6.40;;;;;;;15.53;60.12;101894.19;5004762;28;20525;-62
2022/05/09 04:31:40;;;;;;;16.95;6.20;;;;;;;15.59;60.71;101892.94;5011800;28;20065;-61
2022/05/09 04:34:08;;;;;;;19.42;7.55;;;;;;;14.13;62.41;101894.72;5017993;28;20042;-63
2022/05/09 04:36:38;;;;;;;16.75;7.43;;;;;;;14.32;63.24;101893.50;4964635;28;20061;-63
2022/05/09 04:39:08;;;;;;;18.80;6.85;;;;;;;14.84;61.95;101888.44;5014964;28;20065;-61
2022/05/09 04:41:36;;;;;;;17.25;7.03;;;;;;;14.87;60.67;101890.59;5002055;28;20050;-62
2022/05/09 04:44:05;;;;;;;18.63;7.25;;;;;;;14.99;60.62;101891.69;4997572;28;20053;-61
2022/05/09 04:46:33;;;;;;;15.88;6.72;;;;;;;15.08;60.48;101895.31;5005494;28;20045;-62
2022/05/09 04:49:01;;;;;;;15.98;7.07;;;;;;;15.18;60.82;101892.31;4996350;28;20061;-62
2022/05/09 04:51:32;;;;;;;20.88;7.45;;;;;;;15.30;59.11;101892.56;4981348;28;20433;-67
2022/05/09 04:53:59;;;;;;;21.10;6.97;;;;;;;15.36;60.33;101890.47;5007900;28;20054;-67
2022/05/09 04:56:27;;;;;;;18.38;7.25;;;;;;;14.95;60.10;101898.16;4995875;28;20061;-67
2022/05/09 04:58:58;;;;;;;20.08;7.78;;;;;;;14.44;61.43;101898.50;5015155;28;20054;-67
2022/05/09 05:01:25;;;;;;;15.68;7.25;;;;;;;14.37;61.98;101887.84;5014931;28;20130;-61
2022/05/09 05:04:00;;;;;;;15.00;7.25;;;;;;;14.57;61.64;101892.94;5000854;28;20051;-63
2022/05/09 05:06:27;;;;;;;17.30;7.38;;;;;;;14.87;61.90;101890.59;5014045;28;20050;-62
2022/05/09 05:08:55;;;;;;;20.00;7.60;;;;;;;14.75;60.67;101891.13;4994803;28;20042;-62
2022/05/09 05:11:22;;;;;;;21.70;7.82;;;;;;;14.50;60.54;101889.78;5021289;28;20045;-63
2022/05/09 05:13:50;;;;;;;21.23;7.68;;;;;;;14.59;60.49;101895.41;5023410;28;20068;-61
2022/05/09 05:16:59;;;;;;;19.80;7.93;;;;;;;15.01;60.34;101897.72;5023706;28;20060;-62
2022/05/09 05:19:07;;;;;;;19.42;8.00;;;;;;;14.35;61.10;101903.13;5014353;28;20057;-61
2022/05/09 05:21:34;;;;;;;19.17;7.63;;;;;;;14.01;62.03;101903.53;4996939;28;20557;-63
2022/05/09 05:24:02;;;;;;;20.63;8.50;;;;;;;14.12;62.14;101912.47;5020639;28;20053;-62
2022/05/09 05:26:29;;;;;;;27.02;8.10;;;;;;;14.32;62.04;101904.59;4969364;28;20358;-62
2022/05/09 05:28:57;;;;;;;21.88;7.95;;;;;;;14.89;60.87;101902.22;5019931;28;20046;-62
2022/05/09 05:31:24;;;;;;;13.88;7.38;;;;;;;14.48;61.08;101891.22;4998894;28;20054;-63
2022/05/09 05:33:52;;;;;;;21.88;8.50;;;;;;;14.24;61.92;101902.50;5005683;28;20049;-63
2022/05/09 05:36:20;;;;;;;17.13;7.47;;;;;;;14.33;61.72;101895.13;5013383;28;20041;-61
2022/05/09 05:38:51;;;;;;;19.48;6.90;;;;;;;14.80;62.45;101901.31;5027603;28;20033;-62
2022/05/09 05:41:19;;;;;;;19.42;7.63;;;;;;;14.95;59.61;101904.53;4998577;28;20046;-67
2022/05/09 05:43:47;;;;;;;21.05;7.65;;;;;;;15.18;61.13;101903.44;5016378;28;20065;-66
2022/05/09 05:46:15;;;;;;;23.38;7.75;;;;;;;15.21;59.22;101907.50;5017721;28;20217;-66
2022/05/09 05:48:42;;;;;;;19.63;7.85;;;;;;;15.33;64.49;101908.59;5015320;28;20042;-67
2022/05/09 05:51:12;;;;;;;17.80;8.23;;;;;;;15.15;63.41;101897.69;4991750;28;20386;-64
2022/05/09 05:53:39;;;;;;;23.85;8.32;;;;;;;15.41;63.29;101899.50;4999622;28;20057;-61
2022/05/09 05:56:07;;;;;;;25.67;7.80;;;;;;;15.07;60.40;101899.25;5010503;28;20966;-62
2022/05/09 05:58:34;;;;;;;22.70;8.20;;;;;;;15.07;62.79;101893.69;5013967;28;20061;-63
2022/05/09 06:01:02;;;;;;;26.98;8.48;;;;;;;15.29;60.25;101895.66;4980832;28;20059;-62
2022/05/09 06:03:29;;;;;;;21.88;8.20;;;;;;;15.14;63.35;101907.97;5008575;28;20520;-63
2022/05/09 06:05:57;;;;;;;22.80;8.65;;;;;;;15.21;59.86;101899.19;4996191;28;20401;-63
2022/05/09 06:08:24;;;;;;;22.42;8.07;;;;;;;15.87;62.76;101901.88;5016437;28;20081;-61
2022/05/09 06:10:55;;;;;;;26.33;7.95;;;;;;;16.10;60.13;101914.59;4964148;28;20061;-61
2022/05/09 06:13:25;;;;;;;22.73;8.43;;;;;;;16.00;60.32;101906.53;5028472;28;20046;-61
2022/05/09 06:15:52;;;;;;;21.20;9.02;;;;;;;16.43;60.95;101915.00;5016753;28;20042;-63
2022/05/09 06:18:20;;;;;;;23.90;8.20;;;;;;;16.29;59.20;101922.66;5014653;28;20038;-62
2022/05/09 06:20:47;;;;;;;25.15;8.68;;;;;;;15.83;58.47;101909.22;5007731;28;20057;-63
2022/05/09 06:23:17;;;;;;;15.85;7.80;;;;;;;16.12;57.92;101914.25;4998317;28;20050;-63
2022/05/09 06:25:47;;;;;;;17.48;7.70;;;;;;;16.10;55.98;101913.75;5001419;28;20453;-61
2022/05/09 06:28:16;;;;;;;17.50;7.55;;;;;;;16.34;56.80;101911.38;4998415;28;20050;-63
2022/05/09 06:30:44;;;;;;;22.33;7.78;;;;;;;16.63;58.03;101911.66;5016141;28;20050;-63
2022/05/09 06:33:12;;;;;;;24.38;8.20;;;;;;;16.54;56.70;101908.03;4980679;28;20048;-64
2022/05/09 06:35:45;;;;;;;26.98;9.02;;;;;;;16.53;56.81;101920.28;4983535;28;20049;-64
2022/05/09 06:38:17;;;;;;;25.25;8.38;;;;;;;16.71;56.36;101916.41;4997904;28;20080;-66
2022/05/09 06:40:45;;;;;;;25.20;9.85;;;;;;;16.67;55.31;101916.22;5017188;28;20054;-63
2022/05/09 06:43:13;;;;;;;24.75;8.18;;;;;;;16.70;56.62;101921.13;5015863;28;20050;-65
2022/05/09 06:45:41;;;;;;;24.90;9.15;;;;;;;16.95;54.91;101922.31;5014077;28;20050;-63
2022/05/09 06:48:10;;;;;;;27.33;8.30;;;;;;;16.78;55.04;101925.09;4999413;28;20050;-65
2022/05/09 06:50:39;;;;;;;21.35;9.27;;;;;;;16.03;56.23;101925.34;5016772;28;20063;-64
2022/05/09 06:53:08;;;;;;;23.85;8.88;;;;;;;15.88;57.98;101936.06;4990833;28;20041;-64
2022/05/09 06:55:48;;;;;;;21.92;8.90;;;;;;;15.73;56.62;101940.06;4998551;28;20080;-66
2022/05/09 06:58:21;;;;;;;22.38;9.27;;;;;;;14.82;59.44;101937.88;5010360;28;20041;-70
2022/05/09 07:00:50;;;;;;;28.05;9.70;;;;;;;15.56;58.69;101932.47;5016959;28;20057;-65
2022/05/09 07:03:19;;;;;;;23.02;8.98;;;;;;;15.84;57.54;101924.75;5015280;28;20041;-65
2022/05/09 07:05:48;;;;;;;20.85;8.15;;;;;;;16.27;56.13;101928.53;5014442;28;20046;-67
2022/05/09 07:08:16;;;;;;;20.30;8.70;;;;;;;16.11;56.44;101929.31;5016089;28;20037;-64
2022/05/09 07:10:45;;;;;;;24.65;9.48;;;;;;;16.33;55.82;101932.00;5015737;28;20053;-65
2022/05/09 07:13:33;;;;;;;23.70;8.77;;;;;;;16.75;54.40;101936.88;4996107;28;20037;-66
2022/05/09 07:16:00;;;;;;;26.65;9.80;;;;;;;16.68;54.86;101928.97;5016246;28;20053;-67
2022/05/09 07:18:28;;;;;;;26.35;9.30;;;;;;;16.77;54.51;101927.03;4982870;28;20524;-65
2022/05/09 07:20:56;;;;;;;27.58;9.70;;;;;;;17.01;54.16;101926.56;4961991;28;20065;-65
2022/05/09 07:23:24;;;;;;;25.75;10.32;;;;;;;16.78;54.08;101928.69;4990030;28;20060;-65
2022/05/09 07:25:55;;;;;;;31.10;10.02;;;;;;;16.39;55.91;101934.28;5003202;28;20062;-65
2022/05/09 07:28:23;;;;;;;21.75;8.98;;;;;;;16.92;55.46;101927.72;4993719;28;20051;-62
2022/05/09 07:30:51;;;;;;;27.50;10.10;;;;;;;17.21;53.98;101933.47;4980694;28;20053;-61
2022/05/09 07:33:20;;;;;;;27.17;10.38;;;;;;;16.49;56.36;101944.34;5014357;28;20053;-62
2022/05/09 07:35:48;;;;;;;22.83;10.52;;;;;;;15.95;57.37;101937.25;4983836;28;20046;-63
2022/05/09 07:38:16;;;;;;;28.73;10.50;;;;;;;16.56;57.95;101931.59;4976780;28;20061;-63
2022/05/09 07:40:44;;;;;;;30.85;11.68;;;;;;;15.98;57.33;101936.59;5009096;28;20057;-62
2022/05/09 07:43:17;;;;;;;25.02;11.00;;;;;;;16.08;57.95;101933.53;5012717;28;20404;-63
2022/05/09 07:45:45;;;;;;;26.45;11.10;;;;;;;16.55;56.69;101923.56;5021048;28;20063;-63
2022/05/09 07:48:14;;;;;;;29.93;11.87;;;;;;;16.54;56.54;101924.72;5000454;28;20050;-62
2022/05/09 07:50:41;;;;;;;31.48;11.20;;;;;;;16.39;56.28;101922.34;5004758;28;20112;-64
2022/05/09 07:53:21;;;;;;;28.55;11.00;;;;;;;16.84;55.86;101919.03;4984731;28;20066;-63
2022/05/09 07:55:49;;;;;;;32.58;11.57;;;;;;;17.38;53.64;101917.53;5014676;28;20058;-62
2022/05/09 07:58:18;;;;;;;29.15;11.18;;;;;;;17.62;54.11;101915.06;5008598;28;20056;-62
2022/05/09 08:00:46;;;;;;;24.65;11.45;;;;;;;16.98;54.81;101916.06;5019032;28;20421;-63
2022/05/09 08:03:22;;;;;;;24.88;11.00;;;;;;;16.86;55.01;101921.47;5014595;28;20053;-64
2022/05/09 08:05:58;;;;;;;24.75;11.15;;;;;;;16.55;55.77;101915.22;4999966;28;20524;-62
2022/05/09 08:08:30;;;;;;;25.00;10.93;;;;;;;16.90;56.20;101930.81;4979752;28;20054;-63
2022/05/09 08:10:59;;;;;;;24.45;10.55;;;;;;;17.60;54.42;101922.13;4995520;28;20057;-62
2022/05/09 08:13:30;;;;;;;25.33;10.87;;;;;;;18.10;53.03;101925.09;5015272;28;20520;-63
2022/05/09 08:15:59;;;;;;;20.42;10.40;;;;;;;18.54;51.77;101922.56;5024085;28;20064;-62
2022/05/09 08:18:26;;;;;;;25.83;13.20;;;;;;;17.93;52.50;101917.59;5014689;28;20052;-64
2022/05/09 08:20:55;;;;;;;29.27;12.38;;;;;;;18.37;52.47;101922.63;5014227;28;20054;-67
2022/05/09 08:23:23;;;;;;;27.23;12.40;;;;;;;18.55;51.13;101929.78;5012811;28;20053;-67
2022/05/09 08:25:52;;;;;;;28.55;13.38;;;;;;;18.29;51.34;101928.28;5016434;28;20041;-68
2022/05/09 08:28:19;;;;;;;24.02;13.02;;;;;;;18.19;52.00;101925.84;4990700;28;20053;-69
2022/05/09 08:30:49;;;;;;;28.58;13.02;;;;;;;18.56;51.78;101923.06;5009612;28;20653;-68
2022/05/09 08:33:19;;;;;;;24.50;11.48;;;;;;;18.85;50.67;101911.84;5014657;28;20397;-67
2022/05/09 08:35:49;;;;;;;30.27;12.35;;;;;;;19.03;50.09;101916.13;5013709;28;20449;-69
2022/05/09 08:38:17;;;;;;;;;;;;;;;19.02;49.61;101911.69;5019986;28;20049;-68
2022/05/09 08:40:48;;;;;;;38.70;12.02;;;;;;;18.89;49.63;101912.81;5013960;28;19925;-67
2022/05/09 08:43:16;;;;;;;25.45;10.93;;;;;;;19.01;50.31;101914.84;5002109;28;20068;-70
2022/05/09 08:45:47;;;;;;;26.95;12.52;;;;;;;19.26;52.02;101916.59;5008216;28;20839;-69
2022/05/09 08:48:27;;;;;;;28.48;11.68;;;;;;;19.42;51.43;101912.00;4996052;28;20519;-70
2022/05/09 08:51:09;;;;;;;24.08;11.48;;;;;;;18.89;52.76;101915.59;4988242;28;20057;-65
2022/05/09 08:53:41;;;;;;;25.95;11.80;;;;;;;19.15;51.54;101911.75;4995882;28;20056;-69
2022/05/09 08:56:16;;;;;;;32.78;12.35;;;;;;;19.16;50.62;101917.00;5012858;28;20045;-64
2022/05/09 08:59:05;;;;;;;26.65;12.38;;;;;;;19.07;52.47;101905.91;4996610;28;20054;-63
2022/05/09 09:01:58;;;;;;;28.80;12.73;;;;;;;19.30;49.82;101908.34;5011161;28;20046;-65
2022/05/09 09:04:33;;;;;;;37.97;16.58;;;;;;;19.50;50.36;101904.69;4987724;28;20054;-63
2022/05/09 09:07:28;;;;;;;32.03;12.57;;;;;;;19.72;51.61;101905.13;4997494;28;20068;-64
2022/05/09 09:10:02;;;;;;;32.28;12.93;;;;;;;19.45;49.74;101899.34;5011815;28;20060;-69
2022/05/09 09:13:14;;;;;;;25.35;11.75;;;;;;;19.03;49.87;101906.94;5011629;28;20061;-69
2022/05/09 09:15:49;;;;;;;25.67;11.65;;;;;;;19.49;50.20;101897.50;4999375;28;20057;-69
2022/05/09 09:18:17;;;;;;;20.88;11.15;;;;;;;19.05;50.07;101893.44;5019138;28;20053;-69
2022/05/09 09:21:01;;;;;;;27.75;11.93;;;;;;;18.96;50.67;101899.13;5002722;28;20046;-69
2022/05/09 09:23:42;;;;;;;34.50;12.73;;;;;;;19.05;50.67;101897.06;5021080;28;20058;-69
2022/05/09 09:26:49;;;;;;;32.28;12.38;;;;;;;19.44;49.74;101878.94;4999402;28;20046;-68
2022/05/09 09:29:20;;;;;;;27.80;13.02;;;;;;;19.72;49.33;101877.16;4974612;28;20375;-69
2022/05/09 09:32:12;;;;;;;29.52;12.77;;;;;;;19.74;48.46;101896.38;5008335;28;20045;-69
2022/05/09 09:34:46;;;;;;;25.77;13.23;;;;;;;19.59;48.71;101894.25;4992618;28;20509;-69
2022/05/09 09:37:21;;;;;;;23.33;12.57;;;;;;;19.78;48.28;101891.72;4993957;28;20041;-69
2022/05/09 09:39:49;;;;;;;26.65;12.23;;;;;;;19.99;48.62;101889.66;5003550;28;20525;-69
2022/05/09 09:42:16;;;;;;;30.83;13.80;;;;;;;19.94;47.95;101889.91;5021388;28;20849;-70
2022/05/09 09:44:46;;;;;;;27.25;11.25;;;;;;;20.47;47.71;101883.28;5021347;28;20055;-69
2022/05/09 09:47:19;;;;;;;22.30;11.52;;;;;;;20.20;47.29;101896.00;5001898;28;20061;-69
2022/05/09 09:50:21;;;;;;;34.83;14.90;;;;;;;19.82;47.60;101896.28;5000807;28;20054;-69
2022/05/09 09:52:54;;;;;;;26.42;12.23;;;;;;;20.17;47.48;101893.91;4998173;28;20049;-69
2022/05/09 09:55:39;;;;;;;25.67;12.90;;;;;;;20.37;47.47;101886.53;5002142;28;20052;-64
2022/05/09 09:58:26;;;;;;;25.67;12.90;;;;;;;20.37;47.68;101886.53;4998569;28;20373;-65
2022/05/09 10:01:14;;;;;;;20.20;12.55;;;;;;;20.49;46.35;101873.34;5021470;28;20046;-64
2022/05/09 10:03:44;;;;;;;22.50;10.98;;;;;;;20.81;47.43;101863.94;5020952;28;20378;-64
2022/05/09 10:06:17;;;;;;;;;;;;;;;20.48;45.45;101879.31;4986034;28;20390;-66
2022/05/09 10:08:47;;;;;;;24.85;12.15;;;;;;;20.61;46.75;101870.53;4999324;28;19921;-66
2022/05/09 10:11:20;;;;;;;28.67;12.77;;;;;;;20.22;46.69;101874.09;4951467;28;20069;-66
2022/05/09 10:14:02;;;;;;;28.20;12.90;;;;;;;20.01;47.41;101867.75;5017296;28;20061;-72
2022/05/09 10:16:33;;;;;;;20.10;12.15;;;;;;;20.39;46.97;101867.41;5002808;28;20045;-71
2022/05/09 10:19:03;;;;;;;25.88;13.70;;;;;;;20.64;45.76;101866.22;5008595;28;20049;-69
2022/05/09 10:27:19;;;;;;;24.20;11.30;;;;;;;20.51;46.43;101845.00;5003486;28;20065;-70
2022/05/09 10:29:51;;;;;;;20.55;12.27;;;;;;;20.63;45.02;101850.56;5014334;28;20046;-70
2022/05/09 10:32:24;;;;;;;21.50;11.55;;;;;;;20.82;45.15;101847.94;4999904;28;20069;-64
2022/05/09 10:35:01;;;;;;;26.63;13.18;;;;;;;20.54;45.53;101856.31;5010749;28;20050;-63
2022/05/09 10:37:38;;;;;;;27.52;13.50;;;;;;;20.55;45.56;101848.72;4979385;28;20045;-63
2022/05/09 10:40:10;;;;;;;24.90;12.60;;;;;;;20.68;44.63;101850.31;5007352;28;20054;-68
2022/05/09 10:42:44;;;;;;;25.83;13.15;;;;;;;20.88;44.48;101847.34;4977622;28;20050;-71
2022/05/09 10:45:16;;;;;;;24.70;11.88;;;;;;;20.95;45.04;101849.53;5007499;28;20056;-67
2022/05/09 10:47:44;;;;;;;20.75;11.88;;;;;;;21.31;46.35;101848.56;4999807;28;20065;-68
2022/05/09 10:50:49;;;;;;;20.50;11.45;;;;;;;21.08;44.91;101834.34;4995277;28;20042;-68
2022/05/09 10:53:32;;;;;;;27.08;12.55;;;;;;;21.28;44.27;101836.13;4990673;28;20053;-69
2022/05/09 10:56:11;;;;;;;23.80;12.02;;;;;;;21.56;43.49;101838.88;5007770;28;20062;-70
2022/05/09 10:59:02;;;;;;;31.13;12.83;;;;;;;21.70;43.18;101837.25;5006582;28;20046;-67
2022/05/09 11:01:40;;;;;;;24.30;11.93;;;;;;;21.19;43.50;101833.47;4997391;28;20046;-64
2022/05/09 11:04:09;;;;;;;21.25;11.82;;;;;;;21.27;43.98;101832.50;5007767;28;20057;-67
2022/05/09 11:07:07;;;;;;;24.33;12.57;;;;;;;21.91;44.19;101825.78;4994038;28;20057;-68
2022/05/09 11:10:04;;;;;;;21.52;12.70;;;;;;;21.76;42.78;101821.75;4982482;28;20061;-69
2022/05/09 11:12:45;;;;;;;25.80;12.32;;;;;;;22.48;42.18;101830.72;4989789;28;20743;-69
2022/05/09 11:15:31;;;;;;;18.50;12.02;;;;;;;21.78;42.19;101821.44;5011842;28;20050;-69
2022/05/09 11:18:17;;;;;;;22.30;11.35;;;;;;;22.07;42.38;101818.97;5001086;28;20057;-65
2022/05/09 11:21:06;;;;;;;22.92;12.25;;;;;;;22.18;41.84;101828.47;5014350;28;20046;-63
2022/05/09 11:24:06;;;;;;;25.67;13.30;;;;;;;22.42;40.85;101821.00;4986893;28;20134;-63
2022/05/09 11:26:51;;;;;;;23.67;11.32;;;;;;;22.55;41.02;101814.06;4984823;28;20061;-64
2022/05/09 11:29:36;;;;;;;19.80;10.43;;;;;;;22.48;41.59;101814.72;5004361;28;20058;-64
2022/05/09 11:32:41;;;;;;;20.65;10.00;;;;;;;22.67;40.85;101817.56;4990038;28;20050;-64
2022/05/09 11:35:27;;;;;;;20.08;10.32;;;;;;;22.44;40.63;101808.19;5009117;28;20054;-62
2022/05/09 11:38:00;;;;;;;21.65;9.50;;;;;;;22.33;40.93;101809.97;4992690;28;20058;-63
2022/05/09 11:40:46;;;;;;;21.27;9.52;;;;;;;22.44;40.73;101799.75;5005175;28;20057;-62
2022/05/09 11:43:44;;;;;;;19.90;10.40;;;;;;;22.59;40.33;101803.75;4997018;28;20441;-70
2022/05/09 11:46:27;;;;;;;20.30;10.50;;;;;;;22.41;41.01;101797.69;4994436;28;20053;-68
2022/05/09 11:49:24;;;;;;;21.08;10.57;;;;;;;21.90;41.03;101801.69;4991792;28;20058;-68
2022/05/09 11:51:53;;;;;;;19.58;9.88;;;;;;;21.96;41.29;101798.28;5013195;28;20621;-61
2022/05/09 11:54:38;;;;;;;18.33;10.95;;;;;;;21.85;40.98;101791.56;4994455;28;20057;-63
2022/05/09 11:57:11;;;;;;;16.95;9.30;;;;;;;22.24;41.09;101792.50;4994743;28;20057;-65
2022/05/09 11:59:49;;;;;;;19.20;10.27;;;;;;;22.33;40.31;101785.50;4994448;28;20072;-66
2022/05/09 12:02:43;;;;;;;16.95;11.80;;;;;;;22.65;40.14;101788.22;4977349;28;20521;-65
2022/05/09 12:05:35;;;;;;;15.77;9.98;;;;;;;23.17;39.12;101768.81;4977975;28;20049;-63
2022/05/09 12:08:16;;;;;;;20.13;9.82;;;;;;;23.36;38.71;101766.78;5007979;28;20424;-66
2022/05/09 12:11:12;;;;;;;21.60;9.85;;;;;;;23.20;38.95;101770.88;5015228;28;20508;-67
2022/05/09 12:13:43;;;;;;;19.45;10.85;;;;;;;23.01;38.78;101760.44;5013783;28;20056;-64
2022/05/09 12:16:49;;;;;;;15.55;9.57;;;;;;;22.96;39.21;101763.56;5011920;28;20524;-65
2022/05/09 12:19:32;;;;;;;19.15;9.43;;;;;;;23.01;39.21;101754.03;5010423;28;20053;-65
2022/05/09 12:22:18;;;;;;;24.35;9.40;;;;;;;23.10;39.26;101757.44;4999572;28;20504;-65
2022/05/09 12:24:46;;;;;;;14.25;8.63;;;;;;;23.32;39.25;101763.09;4999354;28;20053;-66
2022/05/09 12:27:45;;;;;;;17.08;9.43;;;;;;;23.67;38.73;101759.25;4995114;28;20054;-65